createdAt,value
2023-03-16T00:00:51.337Z,100278.66
2023-03-16T00:03:18.893Z,100277.34
2023-03-16T00:05:48.827Z,100271.63
2023-03-16T00:08:17.122Z,100275.97
2023-03-16T00:10:44.484Z,100278.38
2023-03-16T00:13:11.346Z,100275.88
2023-03-16T00:15:38.152Z,100276.88
2023-03-16T00:18:05.060Z,100279.53
2023-03-16T00:20:31.998Z,100270.16
2023-03-16T00:23:00.181Z,100274.09
2023-03-16T00:25:26.959Z,100271.09
2023-03-16T00:27:53.797Z,100275.78
2023-03-16T00:30:20.822Z,100276.66
2023-03-16T00:32:47.903Z,100275.63
2023-03-16T00:35:17.729Z,100275.50
2023-03-16T00:37:44.566Z,100271.38
2023-03-16T00:40:13.512Z,100280.03
2023-03-16T00:42:40.292Z,100271.31
2023-03-16T00:45:09.535Z,100274.09
2023-03-16T00:47:36.384Z,100267.63
2023-03-16T00:50:03.520Z,100276.19
2023-03-16T00:52:30.712Z,100273.66
2023-03-16T00:54:58.947Z,100283.47
2023-03-16T00:57:29.413Z,100274.47
2023-03-16T00:59:56.441Z,100274.47
2023-03-16T01:02:23.394Z,100274.78
2023-03-16T01:04:51.257Z,100266.78
2023-03-16T01:07:19.155Z,100261.44
2023-03-16T01:09:47.523Z,100274.78
2023-03-16T01:12:18.268Z,100270.03
2023-03-16T01:14:47.577Z,100263.31
2023-03-16T01:17:17.259Z,100259.94
2023-03-16T01:19:45.118Z,100259.56
2023-03-16T01:22:12.700Z,100258.56
2023-03-16T01:24:40.981Z,100253.41
2023-03-16T01:27:09.060Z,100252.75
2023-03-16T01:29:36.891Z,100251.47
2023-03-16T01:32:06.529Z,100253.25
2023-03-16T01:34:34.476Z,100262.47
2023-03-16T01:37:01.646Z,100266.09
2023-03-16T01:39:40.315Z,100261.00
2023-03-16T01:42:08.780Z,100250.91
2023-03-16T01:44:55.400Z,100247.50
2023-03-16T01:47:26.822Z,100244.91
2023-03-16T01:49:57.540Z,100238.63
2023-03-16T01:52:33.651Z,100237.91
2023-03-16T01:55:05.808Z,100237.75
2023-03-16T01:57:38.844Z,100238.63
2023-03-16T02:00:10.079Z,100235.09
2023-03-16T02:02:56.346Z,100231.72
2023-03-16T02:05:38.684Z,100235.09
2023-03-16T02:08:09.796Z,100231.66
2023-03-16T02:10:38.716Z,100232.09
2023-03-16T02:13:06.358Z,100228.13
2023-03-16T02:15:33.555Z,100234.84
2023-03-16T02:18:02.470Z,100226.41
2023-03-16T02:20:42.306Z,100217.72
2023-03-16T02:23:13.744Z,100212.69
2023-03-16T02:25:55.206Z,100210.47
2023-03-16T02:28:32.138Z,100217.91
2023-03-16T02:31:00.638Z,100215.03
2023-03-16T02:33:32.401Z,100221.47
2023-03-16T02:35:59.560Z,100217.69
2023-03-16T02:38:28.022Z,100215.19
2023-03-16T02:41:01.302Z,100213.19
2023-03-16T02:43:34.751Z,100215.06
2023-03-16T02:46:15.596Z,100207.63
2023-03-16T02:48:49.480Z,100212.16
2023-03-16T02:51:16.327Z,100212.47
2023-03-16T02:53:43.197Z,100213.16
2023-03-16T02:56:10.316Z,100216.69
2023-03-16T02:58:37.502Z,100212.16
2023-03-16T03:01:09.681Z,100211.06
2023-03-16T03:03:38.212Z,100211.06
2023-03-16T03:06:05.659Z,100211.75
2023-03-16T03:08:35.936Z,100212.59
2023-03-16T03:11:03.234Z,100215.81
2023-03-16T03:13:30.068Z,100206.69
2023-03-16T03:15:56.980Z,100202.59
2023-03-16T03:18:26.283Z,100205.25
2023-03-16T03:20:54.688Z,100198.97
2023-03-16T03:23:21.618Z,100197.81
2023-03-16T03:25:48.582Z,100198.38
2023-03-16T03:28:17.228Z,100200.06
2023-03-16T03:30:45.144Z,100196.53
2023-03-16T03:33:12.019Z,100190.44
2023-03-16T03:35:38.922Z,100205.41
2023-03-16T03:38:07.294Z,100198.81
2023-03-16T03:40:35.015Z,100188.59
2023-03-16T03:43:03.716Z,100189.38
2023-03-16T03:45:33.407Z,100177.03
2023-03-16T03:48:00.511Z,100171.53
2023-03-16T03:50:27.704Z,100176.72
2023-03-16T03:53:20.265Z,100178.13
2023-03-16T03:56:12.538Z,100181.59
2023-03-16T03:58:39.644Z,100173.81
2023-03-16T04:01:06.597Z,100183.16
2023-03-16T04:03:34.161Z,100185.53
2023-03-16T04:06:02.112Z,100190.13
2023-03-16T04:08:31.525Z,100172.34
2023-03-16T04:10:58.864Z,100167.56
2023-03-16T04:13:25.702Z,100173.81
2023-03-16T04:15:57.331Z,100164.03
2023-03-16T04:18:27.410Z,100169.25
2023-03-16T04:20:54.441Z,100163.31
2023-03-16T04:23:23.463Z,100159.94
2023-03-16T04:25:52.024Z,100163.16
2023-03-16T04:28:20.927Z,100172.97
2023-03-16T04:30:52.543Z,100166.53
2023-03-16T04:33:25.673Z,100165.16
2023-03-16T04:35:52.623Z,100163.03
2023-03-16T04:38:21.751Z,100160.09
2023-03-16T04:40:57.384Z,100164.97
2023-03-16T04:43:30.039Z,100162.06
2023-03-16T04:46:04.633Z,100164.31
2023-03-16T04:48:32.036Z,100174.25
2023-03-16T04:50:59.260Z,100165.59
2023-03-16T04:53:29.387Z,100161.41
2023-03-16T04:56:02.169Z,100162.38
2023-03-16T04:58:30.360Z,100154.53
2023-03-16T05:00:59.022Z,100167.69
2023-03-16T05:03:29.389Z,100170.53
2023-03-16T05:05:56.365Z,100162.94
2023-03-16T05:08:25.088Z,100167.97
2023-03-16T05:10:57.366Z,100167.16
2023-03-16T05:13:26.244Z,100166.19
2023-03-16T05:15:54.723Z,100159.75
2023-03-16T05:18:27.151Z,100163.50
2023-03-16T05:20:56.549Z,100158.03
2023-03-16T05:23:27.737Z,100157.03
2023-03-16T05:25:59.864Z,100156.38
2023-03-16T05:28:29.604Z,100152.88
2023-03-16T05:31:08.634Z,100154.69
2023-03-16T05:33:39.850Z,100146.97
2023-03-16T05:36:10.588Z,100147.69
2023-03-16T05:38:39.623Z,100143.78
2023-03-16T05:41:09.491Z,100145.88
2023-03-16T05:43:49.520Z,100144.06
2023-03-16T05:46:19.656Z,100143.38
2023-03-16T05:48:49.385Z,100136.91
2023-03-16T05:51:18.564Z,100138.75
2023-03-16T05:53:45.837Z,100133.16
2023-03-16T05:56:21.298Z,100134.16
2023-03-16T05:58:50.223Z,100140.03
2023-03-16T06:01:17.274Z,100135.53
2023-03-16T06:03:44.220Z,100132.72
2023-03-16T06:06:17.821Z,100136.53
2023-03-16T06:08:54.829Z,100138.31
2023-03-16T06:11:45.809Z,100140.41
2023-03-16T06:14:16.746Z,100131.28
2023-03-16T06:16:44.645Z,100135.75
2023-03-16T06:19:12.202Z,100137.59
2023-03-16T06:21:39.419Z,100141.50
2023-03-16T06:24:10.705Z,100131.38
2023-03-16T06:26:37.924Z,100132.66
2023-03-16T06:29:07.709Z,100133.16
2023-03-16T06:31:38.485Z,100138.78
2023-03-16T06:34:06.267Z,100131.34
2023-03-16T06:36:33.794Z,100137.41
2023-03-16T06:39:02.897Z,100136.22
2023-03-16T06:41:41.902Z,100143.03
2023-03-16T06:44:10.209Z,100136.31
2023-03-16T06:46:42.653Z,100134.81
2023-03-16T06:49:09.641Z,100135.91
2023-03-16T06:51:36.887Z,100137.16
2023-03-16T06:54:04.201Z,100133.69
2023-03-16T06:56:32.093Z,100141.25
2023-03-16T06:58:59.046Z,100138.38
2023-03-16T07:01:26.893Z,100132.28
2023-03-16T07:03:55.323Z,100150.78
2023-03-16T07:06:27.642Z,100152.31
2023-03-16T07:08:55.219Z,100147.53
2023-03-16T07:11:22.779Z,100152.31
2023-03-16T07:13:49.733Z,100157.56
2023-03-16T07:16:18.704Z,100157.97
2023-03-16T07:18:45.549Z,100170.53
2023-03-16T07:21:16.614Z,100162.47
2023-03-16T07:23:44.998Z,100152.81
2023-03-16T07:26:14.127Z,100159.63
2023-03-16T07:28:50.936Z,100159.72
2023-03-16T07:31:18.233Z,100155.59
2023-03-16T07:33:46.155Z,100153.59
2023-03-16T07:36:19.870Z,100156.84
2023-03-16T07:38:53.385Z,100166.03
2023-03-16T07:41:20.271Z,100151.66
2023-03-16T07:43:47.341Z,100152.88
2023-03-16T07:46:15.497Z,100155.00
2023-03-16T07:48:45.168Z,100162.59
2023-03-16T07:51:13.858Z,100146.91
2023-03-16T07:53:43.350Z,100149.03
2023-03-16T07:56:20.972Z,100146.44
2023-03-16T07:58:52.021Z,100149.41
2023-03-16T08:01:18.982Z,100145.69
2023-03-16T08:03:45.931Z,100142.47
2023-03-16T08:06:13.068Z,100149.41
2023-03-16T08:08:39.864Z,100146.91
2023-03-16T08:11:08.835Z,100145.63
2023-03-16T08:13:45.270Z,100135.22
2023-03-16T08:16:12.645Z,100129.03
2023-03-16T08:18:42.408Z,100131.66
2023-03-16T08:21:09.876Z,100131.34
2023-03-16T08:23:36.976Z,100129.19
2023-03-16T08:26:05.395Z,100127.69
2023-03-16T08:28:34.853Z,100126.84
2023-03-16T08:31:07.815Z,100123.53
2023-03-16T08:33:50.812Z,100120.28
2023-03-16T08:36:21.740Z,100107.81
2023-03-16T08:39:06.019Z,100110.19
2023-03-16T08:41:39.048Z,100099.94
2023-03-16T08:44:10.720Z,100088.97
2023-03-16T08:46:37.719Z,100083.56
2023-03-16T08:49:08.207Z,100089.06
2023-03-16T08:51:37.199Z,100090.25
2023-03-16T08:54:04.166Z,100072.56
2023-03-16T08:56:31.023Z,100087.47
2023-03-16T08:58:57.858Z,100087.38
2023-03-16T09:01:32.800Z,100086.69
2023-03-16T09:03:59.897Z,100088.53
2023-03-16T09:06:27.120Z,100083.97
2023-03-16T09:08:54.053Z,100083.44
2023-03-16T09:11:20.808Z,100089.03
2023-03-16T09:13:48.187Z,100092.38
2023-03-16T09:16:17.493Z,100089.69
2023-03-16T09:18:46.085Z,100087.69
2023-03-16T09:21:12.997Z,100088.31
2023-03-16T09:23:40.873Z,100090.22
2023-03-16T09:26:07.968Z,100085.00
2023-03-16T09:28:36.811Z,100075.78
2023-03-16T09:31:04.375Z,100074.00
2023-03-16T09:33:33.445Z,100074.19
2023-03-16T09:36:03.278Z,100076.22
2023-03-16T09:38:31.083Z,100067.00
2023-03-16T09:41:06.848Z,100066.81
2023-03-16T09:43:58.211Z,100060.81
2023-03-16T09:46:30.034Z,100060.75
2023-03-16T09:48:59.235Z,100046.41
2023-03-16T09:51:43.225Z,100055.56
2023-03-16T09:54:26.183Z,100063.25
2023-03-16T09:56:55.546Z,100061.41
2023-03-16T09:59:24.812Z,100051.03
2023-03-16T10:02:30.915Z,100050.47
2023-03-16T10:05:08.819Z,100060.97
2023-03-16T10:07:53.751Z,100059.59
2023-03-16T10:10:43.989Z,100059.06
2023-03-16T10:13:27.661Z,100048.22
2023-03-16T10:16:03.023Z,100048.13
2023-03-16T10:18:41.119Z,100055.94
2023-03-16T10:21:15.293Z,100047.19
2023-03-16T10:23:45.278Z,100032.59
2023-03-16T10:26:20.930Z,100023.34
2023-03-16T10:28:49.154Z,100019.72
2023-03-16T10:31:22.547Z,100015.47
2023-03-16T10:33:56.714Z,100012.50
2023-03-16T10:36:31.687Z,100023.09
2023-03-16T10:39:04.297Z,100024.81
2023-03-16T10:41:35.488Z,100019.63
2023-03-16T10:44:10.538Z,100025.00
2023-03-16T10:46:41.851Z,100023.97
2023-03-16T10:49:23.268Z,100018.16
2023-03-16T10:51:50.935Z,100023.91
2023-03-16T10:54:29.842Z,100009.31
2023-03-16T10:56:57.755Z,100007.25
2023-03-16T10:59:32.104Z,99993.72
2023-03-16T11:02:01.634Z,99998.69
2023-03-16T11:04:32.789Z,100007.63
2023-03-16T11:07:02.307Z,99998.81
2023-03-16T11:09:37.857Z,99992.47
2023-03-16T11:12:15.201Z,99994.41
2023-03-16T11:14:44.847Z,99987.94
2023-03-16T11:17:18.897Z,99983.63
2023-03-16T11:19:53.122Z,99983.97
2023-03-16T11:22:23.435Z,99980.56
2023-03-16T11:25:03.120Z,99978.59
2023-03-16T11:27:42.174Z,99973.84
2023-03-16T11:30:19.572Z,99979.16
2023-03-16T11:32:50.704Z,99975.44
2023-03-16T11:35:22.415Z,99980.94
2023-03-16T11:38:13.502Z,99968.81
2023-03-16T11:40:57.316Z,99963.84
2023-03-16T11:43:47.733Z,99958.53
2023-03-16T11:46:20.794Z,99952.19
2023-03-16T11:49:07.026Z,99941.25
2023-03-16T11:51:51.380Z,99940.66
2023-03-16T11:54:40.269Z,99934.63
2023-03-16T11:57:31.531Z,99935.03
2023-03-16T12:00:13.702Z,99939.13
2023-03-16T12:02:59.768Z,99942.16
2023-03-16T12:06:13.493Z,99937.56
2023-03-16T12:09:13.911Z,99934.94
2023-03-16T12:11:54.605Z,99929.44
2023-03-16T12:14:31.477Z,99926.00
2023-03-16T12:17:08.318Z,99919.59
2023-03-16T12:19:45.709Z,99923.94
2023-03-16T12:22:21.183Z,99930.19
2023-03-16T12:25:03.497Z,99919.00
2023-03-16T12:27:36.062Z,99909.00
2023-03-16T12:30:27.081Z,99911.56
2023-03-16T12:33:05.281Z,99913.44
2023-03-16T12:35:45.011Z,99898.63
2023-03-16T12:38:36.557Z,99894.81
2023-03-16T12:41:24.949Z,99893.47
2023-03-16T12:44:09.537Z,99889.38
2023-03-16T12:46:52.264Z,99890.94
2023-03-16T12:49:21.447Z,99880.16
2023-03-16T12:52:00.724Z,99897.59
2023-03-16T12:54:28.797Z,99874.44
2023-03-16T12:57:04.219Z,99867.41
2023-03-16T12:59:41.218Z,99881.47
2023-03-16T13:02:16.758Z,99873.66
2023-03-16T13:04:51.696Z,99859.34
2023-03-16T13:07:24.002Z,99866.56
2023-03-16T13:10:00.480Z,99872.38
2023-03-16T13:12:30.494Z,99867.59
2023-03-16T13:14:57.432Z,99867.00
2023-03-16T13:17:30.646Z,99862.41
2023-03-16T13:20:03.631Z,99850.06
2023-03-16T13:22:42.641Z,99852.56
2023-03-16T13:25:17.794Z,99859.44
2023-03-16T13:27:49.625Z,99853.25
2023-03-16T13:30:22.314Z,99870.53
2023-03-16T13:32:54.291Z,99863.66
2023-03-16T13:35:26.934Z,99855.56
2023-03-16T13:38:03.945Z,99868.66
2023-03-16T13:40:32.193Z,99846.56
2023-03-16T13:43:01.477Z,99843.94
2023-03-16T13:45:37.003Z,99842.34
2023-03-16T13:48:05.886Z,99830.22
2023-03-16T13:50:33.627Z,99828.28
2023-03-16T13:53:05.551Z,99820.19
2023-03-16T13:55:35.988Z,99827.84
2023-03-16T13:58:04.452Z,99817.69
2023-03-16T14:00:36.175Z,99816.56
2023-03-16T14:03:15.933Z,99820.78
2023-03-16T14:05:44.581Z,99823.66
2023-03-16T14:08:21.350Z,99816.28
2023-03-16T14:10:49.853Z,99807.63
2023-03-16T14:13:34.090Z,99796.84
2023-03-16T14:16:06.538Z,99800.50
2023-03-16T14:18:40.900Z,99796.31
2023-03-16T14:21:14.046Z,99799.22
2023-03-16T14:23:45.581Z,99791.78
2023-03-16T14:26:15.311Z,99768.81
2023-03-16T14:28:56.488Z,99771.03
2023-03-16T14:31:34.667Z,99764.06
2023-03-16T14:34:19.908Z,99774.84
2023-03-16T14:36:47.432Z,99774.00
2023-03-16T14:39:19.644Z,99773.00
2023-03-16T14:41:54.791Z,99770.16
2023-03-16T14:44:26.787Z,99771.16
2023-03-16T14:46:55.635Z,99775.69
2023-03-16T14:49:29.640Z,99761.06
2023-03-16T14:52:02.486Z,99756.63
2023-03-16T14:54:30.096Z,99763.19
2023-03-16T14:57:05.456Z,99760.44
2023-03-16T14:59:33.012Z,99766.50
2023-03-16T15:02:02.930Z,99768.88
2023-03-16T15:04:38.048Z,99763.81
2023-03-16T15:07:23.090Z,99768.31
2023-03-16T15:09:52.457Z,99761.38
2023-03-16T15:12:23.038Z,99753.69
2023-03-16T15:14:52.532Z,99747.22
2023-03-16T15:17:22.078Z,99759.50
2023-03-16T15:19:59.678Z,99750.00
2023-03-16T15:22:39.035Z,99749.16
2023-03-16T15:25:28.696Z,99737.25
2023-03-16T15:28:01.285Z,99737.47
2023-03-16T15:30:29.662Z,99745.19
2023-03-16T15:32:56.889Z,99740.00
2023-03-16T15:35:46.585Z,99741.06
2023-03-16T15:38:21.113Z,99738.34
2023-03-16T15:40:55.158Z,99746.66
2023-03-16T15:43:27.955Z,99734.53
2023-03-16T15:45:56.428Z,99743.09
2023-03-16T15:48:23.476Z,99738.75
2023-03-16T15:50:59.294Z,99739.78
2023-03-16T15:53:34.094Z,99738.56
2023-03-16T15:56:08.055Z,99737.28
2023-03-16T15:58:40.149Z,99737.47
2023-03-16T16:01:20.805Z,99727.47
2023-03-16T16:03:51.578Z,99721.84
2023-03-16T16:06:30.824Z,99727.28
2023-03-16T16:09:05.698Z,99725.69
2023-03-16T16:11:35.642Z,99737.81
2023-03-16T16:14:03.410Z,99729.69
2023-03-16T16:16:32.594Z,99724.31
2023-03-16T16:19:02.077Z,99715.56
2023-03-16T16:21:30.590Z,99720.41
2023-03-16T16:23:58.648Z,99712.50
2023-03-16T16:26:54.232Z,99715.44
2023-03-16T16:29:25.899Z,99722.13
2023-03-16T16:31:55.652Z,99716.75
2023-03-16T16:34:27.493Z,99717.41
2023-03-16T16:36:58.650Z,99708.28
2023-03-16T16:39:27.998Z,99703.72
2023-03-16T16:41:57.655Z,99703.53
2023-03-16T16:44:33.870Z,99700.06
2023-03-16T16:47:02.614Z,99693.41
2023-03-16T16:49:31.161Z,99703.22
2023-03-16T16:51:59.728Z,99701.19
2023-03-16T16:54:30.634Z,99693.72
2023-03-16T16:57:01.487Z,99701.25
2023-03-16T16:59:33.114Z,99692.38
2023-03-16T17:02:02.382Z,99687.63
2023-03-16T17:04:30.859Z,99698.63
2023-03-16T17:07:00.768Z,99687.41
2023-03-16T17:09:30.039Z,99695.38
2023-03-16T17:12:00.758Z,99693.09
2023-03-16T17:14:31.795Z,99689.84
2023-03-16T17:17:05.394Z,99693.13
2023-03-16T17:19:32.992Z,99690.25
2023-03-16T17:22:23.169Z,99689.63
2023-03-16T17:24:51.077Z,99694.03
2023-03-16T17:27:26.145Z,99679.69
2023-03-16T17:29:54.503Z,99692.78
2023-03-16T17:32:22.611Z,99686.56
2023-03-16T17:34:54.246Z,99687.44
2023-03-16T17:37:23.476Z,99682.03
2023-03-16T17:39:50.319Z,99681.22
2023-03-16T17:42:20.312Z,99680.81
2023-03-16T17:44:50.322Z,99684.31
2023-03-16T17:47:24.980Z,99686.78
2023-03-16T17:49:52.974Z,99680.81
2023-03-16T17:52:29.164Z,99686.41
2023-03-16T17:54:56.047Z,99688.47
2023-03-16T17:57:29.007Z,99696.19
2023-03-16T17:59:58.422Z,99691.66
2023-03-16T18:02:44.408Z,99692.47
2023-03-16T18:05:19.102Z,99698.94
2023-03-16T18:07:49.008Z,99694.13
2023-03-16T18:10:19.452Z,99688.31
2023-03-16T18:12:53.079Z,99693.91
2023-03-16T18:15:24.966Z,99686.88
2023-03-16T18:17:54.843Z,99691.25
2023-03-16T18:20:29.472Z,99688.97
2023-03-16T18:22:59.357Z,99682.94
2023-03-16T18:25:38.437Z,99679.03
2023-03-16T18:28:07.249Z,99683.38
2023-03-16T18:30:41.128Z,99684.81
2023-03-16T18:33:26.445Z,99690.03
2023-03-16T18:35:57.611Z,99677.97
2023-03-16T18:41:33.716Z,99679.44
2023-03-16T18:44:15.664Z,99685.84
2023-03-16T18:46:43.087Z,99680.47
2023-03-16T18:49:18.673Z,99674.25
2023-03-16T18:51:51.270Z,99674.03
2023-03-16T18:54:28.069Z,99673.81
2023-03-16T18:56:59.903Z,99666.56
2023-03-16T18:59:27.756Z,99670.50
2023-03-16T19:01:57.866Z,99672.38
2023-03-16T19:04:30.968Z,99665.31
2023-03-16T19:07:01.383Z,99667.81
2023-03-16T19:09:32.212Z,99657.63
2023-03-16T19:11:59.354Z,99656.63
2023-03-16T19:14:30.732Z,99662.81
2023-03-16T19:16:59.327Z,99657.22
2023-03-16T19:19:26.505Z,99655.16
2023-03-16T19:21:58.336Z,99651.84
2023-03-16T19:24:31.469Z,99642.50
2023-03-16T19:26:59.784Z,99654.75
2023-03-16T19:29:32.358Z,99655.78
2023-03-16T19:31:59.987Z,99655.38
2023-03-16T19:34:27.959Z,99658.28
2023-03-16T19:36:57.944Z,99654.72
2023-03-16T19:39:28.605Z,99654.50
2023-03-16T19:41:59.231Z,99656.81
2023-03-16T19:44:29.863Z,99654.94
2023-03-16T19:46:56.944Z,99651.84
2023-03-16T19:49:38.676Z,99650.16
2023-03-16T19:52:11.699Z,99660.13
2023-03-16T19:54:38.673Z,99660.75
2023-03-16T19:57:14.432Z,99658.06
2023-03-16T19:59:54.061Z,99655.16
2023-03-16T20:02:28.906Z,99654.56
2023-03-16T20:04:56.606Z,99660.16
2023-03-16T20:07:23.478Z,99658.47
2023-03-16T20:09:52.403Z,99655.16
2023-03-16T20:12:26.031Z,99640.63
2023-03-16T20:14:55.375Z,99643.53
2023-03-16T20:17:28.879Z,99645.78
2023-03-16T20:19:57.145Z,99637.50
2023-03-16T20:22:26.848Z,99634.41
2023-03-16T20:24:54.710Z,99642.25
2023-03-16T20:27:24.349Z,99636.44
2023-03-16T20:29:51.631Z,99644.31
2023-03-16T20:32:21.956Z,99641.19
2023-03-16T20:34:51.777Z,99635.59
2023-03-16T20:37:23.803Z,99639.13
2023-03-16T20:39:51.664Z,99643.50
2023-03-16T20:42:25.035Z,99647.63
2023-03-16T20:44:52.267Z,99651.59
2023-03-16T20:47:22.767Z,99658.00
2023-03-16T20:49:50.852Z,99649.06
2023-03-16T20:52:21.201Z,99643.06
2023-03-16T20:54:48.521Z,99635.19
2023-03-16T20:57:19.447Z,99641.81
2023-03-16T20:59:50.017Z,99643.88
2023-03-16T21:02:26.953Z,99648.88
2023-03-16T21:04:54.627Z,99652.59
2023-03-16T21:07:31.982Z,99641.84
2023-03-16T21:09:58.955Z,99638.09
2023-03-16T21:12:30.089Z,99640.81
2023-03-16T21:15:00.986Z,99632.94
2023-03-16T21:17:35.100Z,99620.09
2023-03-16T21:20:02.277Z,99617.38
2023-03-16T21:22:31.979Z,99624.63
2023-03-16T21:24:59.183Z,99622.34
2023-03-16T21:27:29.863Z,99627.50
2023-03-16T21:30:04.949Z,99622.53
2023-03-16T21:32:36.867Z,99623.38
2023-03-16T21:35:04.622Z,99619.44
2023-03-16T21:37:34.128Z,99619.44
2023-03-16T21:40:01.552Z,99623.34
2023-03-16T21:42:30.753Z,99630.81
2023-03-16T21:45:00.745Z,99619.84
2023-03-16T21:47:30.104Z,99622.97
2023-03-16T21:49:57.400Z,99626.91
2023-03-16T21:52:29.222Z,99617.78
2023-03-16T21:54:58.874Z,99618.38
2023-03-16T21:57:26.039Z,99609.47
2023-03-16T21:59:53.050Z,99613.41
2023-03-16T22:02:24.475Z,99613.16
2023-03-16T22:04:56.911Z,99614.41
2023-03-16T22:07:34.820Z,99619.16
2023-03-16T22:10:01.689Z,99606.31
2023-03-16T22:12:28.621Z,99606.94
2023-03-16T22:14:55.745Z,99606.72
2023-03-16T22:17:28.961Z,99599.44
2023-03-16T22:19:57.185Z,99610.22
2023-03-16T22:22:28.812Z,99609.41
2023-03-16T22:24:55.780Z,99604.22
2023-03-16T22:27:24.164Z,99600.50
2023-03-16T22:29:52.044Z,99598.00
2023-03-16T22:32:22.424Z,99598.59
2023-03-16T22:34:53.710Z,99593.66
2023-03-16T22:37:29.864Z,99594.09
2023-03-16T22:39:57.732Z,99586.22
2023-03-16T22:42:34.395Z,99588.06
2023-03-16T22:45:03.174Z,99582.28
2023-03-16T22:47:32.424Z,99587.91
2023-03-16T22:49:59.853Z,99585.41
2023-03-16T22:52:37.139Z,99580.22
2023-03-16T22:55:06.554Z,99574.63
2023-03-16T22:57:33.835Z,99574.38
2023-03-16T23:00:04.864Z,99573.16
2023-03-16T23:02:33.392Z,99565.50
2023-03-16T23:05:00.297Z,99561.97
2023-03-16T23:07:28.559Z,99549.13
2023-03-16T23:09:57.404Z,99559.06
2023-03-16T23:12:26.310Z,99561.09
2023-03-16T23:14:53.144Z,99553.22
2023-03-16T23:17:21.941Z,99559.84
2023-03-16T23:19:51.526Z,99559.00
2023-03-16T23:22:18.671Z,99551.97
2023-03-16T23:24:47.100Z,99566.47
2023-03-16T23:27:20.544Z,99555.72
2023-03-16T23:29:48.141Z,99559.88
2023-03-16T23:32:16.910Z,99551.38
2023-03-16T23:34:44.204Z,99553.00
2023-03-16T23:37:12.778Z,99562.06
2023-03-16T23:39:39.819Z,99559.19
2023-03-16T23:42:11.261Z,99550.53
2023-03-16T23:44:38.242Z,99548.88
2023-03-16T23:47:05.989Z,99552.22
2023-03-16T23:49:40.250Z,99549.13
2023-03-16T23:52:07.141Z,99546.41
2023-03-16T23:54:37.159Z,99544.66
2023-03-16T23:57:04.210Z,99544.81
2023-03-16T23:59:32.401Z,99543.97
